Time;durP1;ratioP1;P1;durP2;ratioP2;P2;SDS_P1;SDS_P2;PMS_P1;PMS_P2;Temp;Humidity;BMP_temperature;BMP_pressure;BME280_temperature;BME280_humidity;BME280_pressure;Samples;Min_cycle;Max_cycle;Signal;HPM_P1;HPM_P2
2022/11/02 00:00:19;;;;;;;30.17;16.57;;;;;;;7.13;53.73;99419.84;1717726;83;21137;-40
2022/11/02 00:02:47;;;;;;;40.23;20.85;;;;;;;7.14;53.78;99407.95;1717162;83;21527;-40
2022/11/02 00:05:14;;;;;;;38.73;21.40;;;;;;;7.11;53.76;99397.84;1717702;83;21789;-40
2022/11/02 00:07:41;;;;;;;35.70;20.08;;;;;;;7.12;53.67;99396.70;1722673;83;21019;-40
2022/11/02 00:10:10;;;;;;;35.08;20.45;;;;;;;7.12;53.66;99396.70;1708184;83;21037;-40
2022/11/02 00:12:37;;;;;;;38.65;19.62;;;;;;;7.13;53.79;99399.63;1697235;84;21332;-40
2022/11/02 00:15:08;;;;;;;34.55;19.77;;;;;;;7.14;53.88;99391.77;1697156;84;20946;-40
2022/11/02 00:17:36;;;;;;;38.33;20.00;;;;;;;7.14;53.68;99397.16;1717706;83;21021;-40
2022/11/02 00:20:05;;;;;;;43.48;20.95;;;;;;;7.14;53.60;99389.07;1717495;83;20997;-40
2022/11/02 00:22:32;;;;;;;37.20;19.92;;;;;;;7.15;53.60;99394.70;1688860;85;21060;-40
2022/11/02 00:25:03;;;;;;;38.23;20.45;;;;;;;7.19;53.44;99394.80;1717371;83;21202;-40
2022/11/02 00:27:30;;;;;;;36.55;19.35;;;;;;;7.19;53.30;99392.90;1717539;83;20977;-40
2022/11/02 00:29:58;;;;;;;38.67;19.23;;;;;;;7.21;53.26;99400.07;1717515;83;21765;-40
2022/11/02 00:32:26;;;;;;;38.33;20.57;;;;;;;7.25;53.28;99392.13;1717462;83;20994;-40
2022/11/02 00:34:53;;;;;;;38.15;20.55;;;;;;;7.24;53.11;99371.11;1717352;83;21033;-40
2022/11/02 00:37:20;;;;;;;37.35;19.45;;;;;;;7.25;52.86;99371.90;1717411;83;21141;-40
2022/11/02 00:39:47;;;;;;;35.98;19.30;;;;;;;7.20;53.03;99381.00;1688480;85;20917;-40
2022/11/02 00:42:15;;;;;;;36.50;19.32;;;;;;;7.20;53.15;99386.95;1717446;83;20981;-40
2022/11/02 00:44:43;;;;;;;34.58;18.45;;;;;;;7.22;53.36;99382.78;1717189;83;21487;-40
2022/11/02 00:47:11;;;;;;;33.15;18.87;;;;;;;7.23;53.34;99383.57;1688609;85;21101;-40
2022/11/02 00:49:39;;;;;;;33.50;18.48;;;;;;;7.26;53.18;99387.72;1717426;83;20938;-40
2022/11/02 00:52:07;;;;;;;34.75;19.02;;;;;;;7.28;53.07;99385.48;1717268;83;20953;-40
2022/11/02 00:54:35;;;;;;;32.50;19.50;;;;;;;7.32;53.39;99384.24;1688588;85;20994;-40
2022/11/02 00:57:01;;;;;;;32.28;18.27;;;;;;;7.33;53.51;99386.61;1717233;83;20984;-40
2022/11/02 00:59:28;;;;;;;37.58;19.70;;;;;;;7.34;53.44;99381.45;1688924;83;21100;-40
2022/11/02 01:01:56;;;;;;;38.75;18.95;;;;;;;7.35;53.30;99378.98;1707782;84;21144;-40
2022/11/02 01:04:23;;;;;;;33.15;19.23;;;;;;;7.35;53.41;99376.29;1696965;84;20957;-40
2022/11/02 01:06:50;;;;;;;37.75;19.52;;;;;;;7.32;53.57;99370.77;1667135;84;21053;-40
2022/11/02 01:09:17;;;;;;;33.60;18.92;;;;;;;7.31;53.73;99369.20;1697070;84;21052;-40
2022/11/02 01:11:44;;;;;;;30.40;17.42;;;;;;;7.31;53.97;99371.31;1696846;84;21044;-40
2022/11/02 01:14:11;;;;;;;33.98;18.50;;;;;;;7.30;54.01;99372.47;1697048;84;21146;-40
2022/11/02 01:16:41;;;;;;;33.75;17.77;;;;;;;7.29;53.96;99370.89;1697050;84;20988;-40
2022/11/02 01:19:08;;;;;;;34.35;18.20;;;;;;;7.28;54.16;99365.27;1697115;84;21020;-40
2022/11/02 01:21:34;;;;;;;34.53;18.37;;;;;;;7.27;54.07;99366.38;1696973;84;20988;-40
2022/11/02 01:24:03;;;;;;;34.53;18.00;;;;;;;7.25;53.86;99360.55;1696937;84;21067;-40
2022/11/02 01:26:31;;;;;;;33.88;18.37;;;;;;;7.21;53.79;99359.63;1717403;83;21262;-40
2022/11/02 01:28:59;;;;;;;32.40;18.50;;;;;;;7.17;54.02;99360.08;1711618;83;20992;-40
2022/11/02 01:31:26;;;;;;;30.37;18.52;;;;;;;7.13;54.06;99359.19;1716797;83;21000;-40
2022/11/02 01:33:54;;;;;;;32.25;18.48;;;;;;;7.03;54.15;99362.32;1722202;83;21530;-40
2022/11/02 01:36:21;;;;;;;32.70;18.65;;;;;;;6.97;54.48;99360.98;1722565;83;21040;-40
2022/11/02 01:38:50;;;;;;;33.50;18.32;;;;;;;6.94;54.52;99356.25;1716643;83;23266;-40
2022/11/02 01:41:17;;;;;;;32.13;18.67;;;;;;;6.92;54.65;99357.16;1722293;83;20917;-40
2022/11/02 01:43:48;;;;;;;36.20;19.05;;;;;;;6.90;54.62;99363.43;1722520;83;21098;-40
2022/11/02 01:46:22;;;;;;;33.95;18.02;;;;;;;6.91;54.41;99360.41;1722496;83;21053;-40
2022/11/02 01:49:04;;;;;;;36.85;18.25;;;;;;;6.93;54.27;99360.06;1722643;83;21016;-40
2022/11/02 01:52:01;;;;;;;32.63;18.15;;;;;;;6.94;54.33;99358.38;1722634;83;21790;-40
2022/11/02 01:54:36;;;;;;;35.70;18.80;;;;;;;6.94;54.31;99357.59;1713821;83;21478;-40
2022/11/02 01:57:06;;;;;;;34.48;18.73;;;;;;;6.89;54.30;99353.21;1691633;84;21604;-40
2022/11/02 01:59:41;;;;;;;32.93;19.20;;;;;;;6.89;54.37;99353.21;1691735;84;21004;-40
2022/11/02 02:02:14;;;;;;;33.28;18.45;;;;;;;6.89;54.36;99356.47;1691828;84;21541;-40
2022/11/02 02:04:43;;;;;;;37.65;18.92;;;;;;;6.90;54.14;99351.30;1717334;83;21239;-40
2022/11/02 02:07:11;;;;;;;35.23;17.52;;;;;;;6.91;54.00;99347.50;1717322;83;21502;-40
2022/11/02 02:09:40;;;;;;;34.30;19.02;;;;;;;6.91;53.93;99343.45;1688906;85;21554;-40
2022/11/02 02:12:07;;;;;;;30.80;18.75;;;;;;;6.90;53.84;99338.63;1717993;83;21081;-40
2022/11/02 02:14:34;;;;;;;37.60;18.80;;;;;;;6.89;53.76;99330.86;1698133;84;21040;-40
2022/11/02 02:17:37;;;;;;;38.75;19.02;;;;;;;6.88;53.83;99333.33;1697947;84;23331;-40
2022/11/02 02:20:26;;;;;;;35.85;18.80;;;;;;;6.88;53.97;99330.63;1680692;84;21029;-40
2022/11/02 02:23:10;;;;;;;34.25;18.15;;;;;;;6.85;54.05;99323.23;1756722;81;20984;-40
2022/11/02 02:26:17;;;;;;;32.83;18.12;;;;;;;6.82;54.17;99322.56;1717264;81;21004;-40
2022/11/02 02:29:09;;;;;;;34.38;18.92;;;;;;;6.82;54.06;99319.87;1720692;83;21032;-40
2022/11/02 02:31:59;;;;;;;33.90;18.40;;;;;;;6.78;54.06;99314.34;1692901;84;23170;-40
2022/11/02 02:34:32;;;;;;;38.98;18.17;;;;;;;6.78;54.14;99325.67;1697984;84;21593;-40
2022/11/02 02:37:10;;;;;;;36.48;19.15;;;;;;;6.75;54.42;99312.88;1757049;81;21051;-40
2022/11/02 02:40:01;;;;;;;37.23;18.05;;;;;;;6.71;54.53;99320.06;1744096;81;20997;-40
2022/11/02 02:42:40;;;;;;;32.05;18.12;;;;;;;6.68;54.94;99318.81;1756783;81;21529;-40
2022/11/02 02:45:29;;;;;;;35.30;18.00;;;;;;;6.62;55.21;99326.91;1720718;83;21277;-40
2022/11/02 02:48:10;;;;;;;31.52;18.23;;;;;;;6.59;55.28;99328.11;1692551;84;21575;-40
2022/11/02 02:50:50;;;;;;;34.67;18.40;;;;;;;6.55;55.50;99326.65;1698093;84;21060;-40
2022/11/02 02:53:24;;;;;;;31.73;17.92;;;;;;;6.51;55.69;99334.61;1720981;83;21033;-40
2022/11/02 02:55:50;;;;;;;32.93;17.65;;;;;;;6.48;55.88;99331.25;1698056;84;21048;-40
2022/11/02 02:58:25;;;;;;;33.73;18.62;;;;;;;6.47;55.89;99333.71;1750632;81;21910;-40
2022/11/02 03:00:52;;;;;;;31.77;16.75;;;;;;;6.46;55.92;99330.78;1756354;81;21024;-40
2022/11/02 03:03:25;;;;;;;31.45;17.12;;;;;;;6.43;56.04;99326.08;1756841;81;20960;-40
2022/11/02 03:06:06;;;;;;;31.37;18.45;;;;;;;6.42;56.00;99323.15;1720736;83;21045;-40
2022/11/02 03:08:38;;;;;;;33.25;18.45;;;;;;;6.42;56.09;99323.15;1698077;84;20949;-40
2022/11/02 03:11:13;;;;;;;34.00;17.45;;;;;;;6.38;56.20;99319.55;1756964;81;21950;-40
2022/11/02 03:14:06;;;;;;;31.87;17.55;;;;;;;6.35;56.03;99319.41;1756680;81;21084;-40
2022/11/02 03:16:39;;;;;;;34.30;18.32;;;;;;;6.29;55.92;99316.16;1719917;83;20949;-40
2022/11/02 03:19:33;;;;;;;33.38;17.35;;;;;;;6.26;56.32;99315.46;1698334;84;21040;-40
2022/11/02 03:22:31;;;;;;;33.05;19.07;;;;;;;6.27;56.35;99310.86;1697983;84;21123;-40
2022/11/02 03:25:19;;;;;;;31.65;17.55;;;;;;;6.25;56.41;99326.00;1756721;81;21709;-40
2022/11/02 03:27:51;;;;;;;32.60;17.90;;;;;;;6.22;56.46;99317.25;1756520;81;21008;-40
2022/11/02 03:30:21;;;;;;;29.52;17.50;;;;;;;6.20;56.54;99320.81;1756642;81;20993;-40
2022/11/02 03:33:08;;;;;;;34.23;17.15;;;;;;;6.19;56.70;99327.34;1756730;81;21023;-40
2022/11/02 03:36:00;;;;;;;34.67;17.60;;;;;;;6.19;56.62;99324.65;1757080;81;20964;-40
2022/11/02 03:38:34;;;;;;;;;;;;;;;6.14;56.64;99322.72;1704280;83;21570;-40
2022/11/02 03:41:01;;;;;;;33.38;17.52;;;;;;;6.10;56.68;99322.56;1677170;85;20142;-40
2022/11/02 03:43:29;;;;;;;29.60;17.98;;;;;;;5.98;56.78;99319.84;1658158;85;21636;-40
2022/11/02 03:45:57;;;;;;;31.77;18.17;;;;;;;5.98;56.81;99327.91;1671406;85;21104;-40
2022/11/02 03:48:32;;;;;;;33.78;18.65;;;;;;;5.98;57.01;99326.02;1677003;85;21092;-40
2022/11/02 03:51:03;;;;;;;34.13;18.62;;;;;;;5.99;57.14;99326.80;1677182;85;21124;-40
2022/11/02 03:53:54;;;;;;;31.77;17.48;;;;;;;5.98;57.58;99323.88;1677039;85;20917;-40
2022/11/02 03:56:27;;;;;;;30.80;16.85;;;;;;;5.99;57.81;99317.38;1671164;85;21609;-40
2022/11/02 03:58:56;;;;;;;30.02;17.35;;;;;;;5.97;58.17;99315.56;1676922;85;21570;-40
2022/11/02 04:01:22;;;;;;;32.17;16.93;;;;;;;5.97;58.33;99318.26;1676955;85;21186;-40
2022/11/02 04:03:49;;;;;;;32.30;16.95;;;;;;;5.97;58.50;99323.64;1676940;85;21523;-40
2022/11/02 04:06:17;;;;;;;30.48;17.75;;;;;;;5.98;58.69;99319.28;1659305;85;21015;-40
2022/11/02 04:08:47;;;;;;;30.40;16.65;;;;;;;5.96;58.77;99317.47;1676979;85;21115;-40
2022/11/02 04:16:39;;;;;;;29.45;16.93;;;;;;;5.93;58.95;99309.27;1686309;84;21279;-40
2022/11/02 04:19:28;;;;;;;27.02;16.23;;;;;;;5.88;59.00;99308.92;1718089;83;21047;-40
2022/11/02 04:27:34;;;;;;;34.85;16.65;;;;;;;5.82;59.47;99308.84;1718981;83;21005;-40
2022/11/02 04:30:01;;;;;;;31.85;17.60;;;;;;;5.81;59.62;99307.85;1719006;83;21147;-40
2022/11/02 04:35:16;;;;;;;32.15;18.23;;;;;;;5.80;59.54;99301.69;1718924;82;20961;-40
2022/11/02 04:40:32;;;;;;;29.30;16.85;;;;;;;5.78;59.30;99307.15;1718850;82;21103;-40
2022/11/02 04:42:59;;;;;;;32.48;18.92;;;;;;;5.73;59.20;99297.93;1718885;83;21131;-40
2022/11/02 04:45:27;;;;;;;34.33;18.85;;;;;;;5.71;59.19;99305.00;1718961;83;20945;-40
2022/11/02 04:48:05;;;;;;;38.42;18.27;;;;;;;5.72;59.13;99300.38;1718999;83;21024;-40
2022/11/02 04:50:33;;;;;;;35.90;18.35;;;;;;;5.69;59.10;99293.77;1719009;83;20941;-40
2022/11/02 04:53:02;;;;;;;33.00;18.42;;;;;;;5.65;59.03;99298.23;1718770;83;21024;-40
2022/11/02 04:55:30;;;;;;;34.88;17.92;;;;;;;5.64;59.06;99291.28;1718852;83;21224;-40
2022/11/02 04:57:57;;;;;;;32.58;18.48;;;;;;;5.62;59.01;99292.94;1718751;83;20973;-40
2022/11/02 05:00:25;;;;;;;32.03;17.50;;;;;;;5.60;59.04;99291.16;1718748;83;21040;-40
2022/11/02 05:02:52;;;;;;;30.12;17.52;;;;;;;5.60;59.09;99296.53;1718606;83;21619;-40
2022/11/02 05:05:20;;;;;;;30.75;17.48;;;;;;;5.60;59.01;99292.50;1718838;83;21049;-40
2022/11/02 05:07:48;;;;;;;36.30;18.10;;;;;;;5.59;59.08;99289.58;1718710;83;21133;-40
2022/11/02 05:10:16;;;;;;;29.37;17.35;;;;;;;5.56;59.08;99282.17;1718699;83;21570;-40
2022/11/02 05:12:45;;;;;;;35.20;19.35;;;;;;;5.54;59.08;99279.02;1718971;83;21005;-40
2022/11/02 05:15:12;;;;;;;31.15;17.85;;;;;;;5.52;58.58;99286.61;1718814;82;21511;-40
2022/11/02 05:17:39;;;;;;;33.80;18.00;;;;;;;5.50;58.60;99286.72;1718906;83;20998;-40
2022/11/02 05:20:10;;;;;;;35.23;18.32;;;;;;;5.49;58.92;99282.45;1718980;82;23173;-40
2022/11/02 05:22:38;;;;;;;29.25;17.27;;;;;;;5.50;59.01;99279.44;1718640;83;21034;-40
2022/11/02 05:25:07;;;;;;;31.30;17.55;;;;;;;5.51;59.10;99280.23;1697480;83;21005;-40
2022/11/02 05:27:34;;;;;;;34.50;17.87;;;;;;;5.53;59.15;99281.47;1718789;82;21040;-40
2022/11/02 05:30:01;;;;;;;30.05;16.73;;;;;;;5.55;59.00;99281.15;1718783;83;21092;-40
2022/11/02 05:32:29;;;;;;;30.92;16.95;;;;;;;5.55;59.10;99283.28;1718935;83;21232;-40
2022/11/02 05:34:57;;;;;;;29.48;17.15;;;;;;;5.56;59.35;99284.86;1718651;82;21523;-40
2022/11/02 05:37:24;;;;;;;31.57;18.77;;;;;;;5.59;59.54;99284.20;1718830;83;21004;-40
2022/11/02 05:39:50;;;;;;;32.38;17.55;;;;;;;5.62;60.01;99285.43;1718897;83;20925;-40
2022/11/02 05:42:18;;;;;;;33.33;17.37;;;;;;;5.66;60.30;99290.41;1718889;83;21487;-40
2022/11/02 05:44:45;;;;;;;33.05;19.02;;;;;;;5.67;60.51;99287.37;1718941;82;21152;-40
2022/11/02 05:47:12;;;;;;;34.38;19.23;;;;;;;5.71;60.28;99290.77;1718922;82;21900;-40
2022/11/02 05:49:40;;;;;;;35.73;18.42;;;;;;;5.77;60.16;99294.25;1718856;82;21145;-40
2022/11/02 05:52:07;;;;;;;31.82;17.98;;;;;;;5.83;59.97;99302.36;1719096;82;21464;-40
2022/11/02 05:54:34;;;;;;;31.70;18.10;;;;;;;5.80;60.21;99296.86;1718753;83;21025;-40
2022/11/02 05:57:01;;;;;;;31.73;19.48;;;;;;;5.79;60.56;99297.41;1718710;82;21034;-40
2022/11/02 05:59:27;;;;;;;31.57;17.17;;;;;;;5.86;60.79;99307.63;1719033;83;21004;-40
2022/11/02 06:01:54;;;;;;;36.68;18.92;;;;;;;5.86;60.32;99310.31;1718850;82;21076;-40
2022/11/02 06:04:21;;;;;;;41.42;22.93;;;;;;;5.79;60.71;99310.86;1719084;83;20980;-40
2022/11/02 06:06:48;;;;;;;45.28;26.77;;;;;;;5.79;60.90;99309.52;1719017;83;20986;-40
2022/11/02 06:09:14;;;;;;;42.27;22.07;;;;;;;5.87;60.79;99314.06;1719046;83;21253;-40
2022/11/02 06:11:43;;;;;;;36.25;19.67;;;;;;;5.95;60.56;99305.70;1718990;83;20965;-40
2022/11/02 06:14:11;;;;;;;36.50;21.00;;;;;;;6.02;60.07;99307.30;1724739;82;20909;-40
2022/11/02 06:16:39;;;;;;;36.83;20.35;;;;;;;6.05;59.77;99303.38;1731992;82;20933;-40
2022/11/02 06:19:06;;;;;;;31.80;18.98;;;;;;;6.04;59.62;99305.86;1732035;82;21088;-40
2022/11/02 06:21:33;;;;;;;36.08;18.57;;;;;;;6.05;59.49;99302.03;1732116;82;21141;-40
2022/11/02 06:24:00;;;;;;;35.33;19.55;;;;;;;6.07;59.32;99307.09;1731868;82;21540;-40
2022/11/02 06:26:27;;;;;;;37.67;20.62;;;;;;;5.77;58.98;99269.25;1731994;82;20980;-40
2022/11/02 06:28:54;;;;;;;37.58;20.65;;;;;;;6.00;58.56;99314.34;1731877;82;21629;-40
2022/11/02 06:31:21;;;;;;;38.45;21.33;;;;;;;5.97;58.58;99316.36;1732000;82;21498;-40
2022/11/02 06:33:48;;;;;;;37.63;21.20;;;;;;;5.96;58.88;99320.16;1732000;82;21193;-40
2022/11/02 06:36:14;;;;;;;37.50;20.88;;;;;;;5.99;59.20;99330.84;1731840;82;21015;-40
2022/11/02 06:38:41;;;;;;;38.50;21.82;;;;;;;6.01;59.50;99333.97;1731950;82;20996;-40
2022/11/02 06:41:09;;;;;;;37.95;21.57;;;;;;;6.07;59.83;99329.41;1731950;82;21068;-40
2022/11/02 06:43:37;;;;;;;28.20;16.42;;;;;;;6.16;60.10;99329.88;1732435;82;21546;-40
2022/11/02 06:46:05;;;;;;;36.98;21.25;;;;;;;6.23;60.48;99328.25;1731919;82;21593;-40
2022/11/02 06:48:32;;;;;;;34.15;19.73;;;;;;;6.34;60.83;99331.32;1731861;82;20989;-40
2022/11/02 06:50:59;;;;;;;36.48;19.02;;;;;;;6.46;60.79;99336.73;1731811;82;20953;-40
2022/11/02 06:53:25;;;;;;;33.85;19.62;;;;;;;6.60;60.58;99343.16;1731924;82;20894;-40
2022/11/02 06:55:54;;;;;;;35.78;20.05;;;;;;;6.71;60.31;99349.70;1731982;82;21021;-40
2022/11/02 06:58:24;;;;;;;35.73;20.77;;;;;;;6.82;60.04;99350.85;1732025;82;21045;-40
2022/11/02 07:01:00;;;;;;;35.83;20.10;;;;;;;6.90;60.25;99347.27;1731914;82;21023;-40
2022/11/02 07:03:28;;;;;;;32.08;18.35;;;;;;;7.03;60.60;99348.84;1731916;82;20934;-40
2022/11/02 07:05:54;;;;;;;35.92;19.55;;;;;;;7.23;60.82;99341.77;1731704;82;20964;-40
2022/11/02 07:08:21;;;;;;;34.75;19.65;;;;;;;7.42;60.77;99349.52;1731976;82;21017;-40
2022/11/02 07:10:48;;;;;;;32.38;19.27;;;;;;;7.56;60.56;99338.37;1731903;82;21240;-40
2022/11/02 07:13:15;;;;;;;32.20;18.55;;;;;;;7.69;60.55;99334.55;1731758;82;21023;-40
2022/11/02 07:15:43;;;;;;;34.38;18.77;;;;;;;7.82;60.40;99333.95;1731691;82;20905;-40
2022/11/02 07:18:11;;;;;;;32.25;17.87;;;;;;;7.94;60.27;99337.95;1731943;82;21031;-40
2022/11/02 07:20:40;;;;;;;28.32;16.07;;;;;;;8.06;60.23;99330.39;1732243;82;21462;-40
2022/11/02 07:23:07;;;;;;;28.38;16.93;;;;;;;8.19;59.92;99334.61;1731731;82;23156;-40
2022/11/02 07:25:35;;;;;;;31.05;17.45;;;;;;;8.26;59.79;99332.91;1731822;82;21283;-40
2022/11/02 07:28:05;;;;;;;27.77;16.82;;;;;;;8.39;59.41;99330.95;1731880;82;20941;-40
2022/11/02 07:30:33;;;;;;;36.00;17.85;;;;;;;8.52;59.01;99328.40;1731703;82;21578;-40
2022/11/02 07:32:59;;;;;;;30.70;18.10;;;;;;;8.63;58.77;99323.28;1731809;82;21040;-40
2022/11/02 07:35:26;;;;;;;28.07;17.27;;;;;;;8.75;58.15;99312.97;1731897;82;21248;-40
2022/11/02 07:38:05;;;;;;;29.37;18.62;;;;;;;8.84;57.70;99320.34;1731927;82;21025;-40
2022/11/02 07:40:34;;;;;;;28.73;17.40;;;;;;;8.92;57.57;99329.63;1731843;82;21340;-40
2022/11/02 07:43:02;;;;;;;33.25;18.57;;;;;;;9.02;57.54;99335.08;1732054;82;21600;-40
2022/11/02 07:45:31;;;;;;;31.85;18.27;;;;;;;9.11;57.14;99330.27;1730653;82;21640;-40
2022/11/02 07:47:58;;;;;;;33.08;18.67;;;;;;;9.16;57.23;99330.00;1731684;82;23202;-40
2022/11/02 07:50:28;;;;;;;31.52;19.35;;;;;;;9.26;57.37;99328.69;1731910;82;20960;-40
2022/11/02 07:52:56;;;;;;;27.85;18.40;;;;;;;9.39;56.99;99334.23;1732150;82;20981;-40
2022/11/02 07:55:25;;;;;;;33.63;18.98;;;;;;;9.48;56.73;99338.31;1732081;82;20972;-40
2022/11/02 07:57:57;;;;;;;25.48;17.45;;;;;;;9.58;56.68;99339.70;1732121;82;21020;-40
2022/11/02 08:00:26;;;;;;;28.90;18.10;;;;;;;9.69;56.58;99343.40;1732005;82;21147;-40
2022/11/02 08:02:57;;;;;;;28.87;17.55;;;;;;;9.83;56.24;99341.56;1731880;82;21019;-40
2022/11/02 08:05:24;;;;;;;33.08;18.52;;;;;;;9.95;55.97;99341.45;1731994;82;20984;-40
2022/11/02 08:08:00;;;;;;;30.48;17.82;;;;;;;10.10;55.66;99339.81;1731987;82;20936;-40
2022/11/02 08:10:29;;;;;;;28.12;16.97;;;;;;;10.21;55.51;99338.93;1731879;82;21517;-40
2022/11/02 08:12:56;;;;;;;28.77;16.80;;;;;;;10.34;55.05;99336.27;1732296;82;21135;-40
2022/11/02 08:15:24;;;;;;;27.52;17.12;;;;;;;10.45;54.75;99336.48;1731780;82;21519;-40
2022/11/02 08:18:15;;;;;;;27.42;17.73;;;;;;;10.56;54.69;99342.87;1731876;82;21581;-40
2022/11/02 08:20:46;;;;;;;25.05;16.42;;;;;;;10.66;54.56;99334.72;1732005;82;20949;-40
2022/11/02 08:23:15;;;;;;;27.25;16.65;;;;;;;10.80;54.54;99334.39;1732372;82;21554;-40
2022/11/02 08:25:44;;;;;;;27.48;16.48;;;;;;;10.97;54.21;99338.57;1732132;82;21229;-40
2022/11/02 08:28:14;;;;;;;25.97;15.55;;;;;;;11.11;53.82;99332.59;1731823;82;20993;-40
2022/11/02 08:30:41;;;;;;;27.62;15.90;;;;;;;11.24;53.61;99327.17;1732138;82;21506;-40
2022/11/02 08:33:12;;;;;;;27.73;16.50;;;;;;;11.38;53.37;99324.67;1731873;82;21607;-40
2022/11/02 08:35:41;;;;;;;28.10;16.27;;;;;;;11.53;52.81;99319.66;1716176;82;21637;-40
2022/11/02 08:38:08;;;;;;;27.90;16.57;;;;;;;11.68;52.56;99316.00;1731876;82;21665;-40
2022/11/02 08:40:36;;;;;;;26.87;16.60;;;;;;;11.81;52.22;99310.38;1731878;82;20992;-40
2022/11/02 08:43:05;;;;;;;26.45;16.15;;;;;;;11.93;51.91;99313.64;1731641;82;21046;-40
2022/11/02 08:45:35;;;;;;;31.80;17.15;;;;;;;12.10;51.65;99304.91;1732026;82;20977;-40
2022/11/02 08:48:02;;;;;;;29.45;16.42;;;;;;;12.26;51.12;99301.98;1731789;82;21029;-40
2022/11/02 08:50:30;;;;;;;26.65;16.52;;;;;;;12.37;50.97;99300.17;1731759;82;21125;-40
2022/11/02 08:52:57;;;;;;;24.27;16.23;;;;;;;12.50;50.86;99300.68;1731734;82;21005;-40
2022/11/02 08:55:23;;;;;;;24.30;16.07;;;;;;;12.68;50.44;99290.78;1731649;82;21570;-40
2022/11/02 08:57:53;;;;;;;27.87;17.07;;;;;;;12.79;49.92;99290.85;1731863;82;21555;-40
2022/11/02 09:00:23;;;;;;;24.20;16.37;;;;;;;12.91;49.46;99284.56;1732272;82;20996;-40
2022/11/02 09:03:04;;;;;;;24.90;15.80;;;;;;;12.99;48.83;99294.91;1731859;82;21171;-40
2022/11/02 09:05:43;;;;;;;26.57;16.12;;;;;;;13.03;48.79;99282.11;1731700;82;20937;-40
2022/11/02 09:08:19;;;;;;;28.45;16.45;;;;;;;13.13;48.24;99288.83;1731148;82;21546;-40
2022/11/02 09:10:50;;;;;;;30.02;16.15;;;;;;;13.26;48.17;99286.02;1731792;82;21020;-40
2022/11/02 09:13:20;;;;;;;26.57;17.00;;;;;;;13.37;48.07;99282.19;1731845;82;21048;-40
2022/11/02 09:15:49;;;;;;;26.17;16.67;;;;;;;13.47;47.66;99282.05;1723493;82;21191;-40
2022/11/02 09:18:16;;;;;;;27.00;17.40;;;;;;;13.59;47.73;99287.20;1719192;83;21566;-40
2022/11/02 09:20:45;;;;;;;26.20;16.23;;;;;;;13.69;47.62;99287.05;1718819;83;21366;-41
2022/11/02 09:23:12;;;;;;;27.47;16.80;;;;;;;13.80;47.34;99285.14;1719182;83;21598;-41
2022/11/02 09:25:39;;;;;;;26.95;16.42;;;;;;;13.95;47.09;99286.77;1719070;83;21016;-40
2022/11/02 09:28:08;;;;;;;22.85;15.55;;;;;;;14.11;46.98;99287.23;1719068;83;21138;-40
2022/11/02 09:30:35;;;;;;;24.85;15.53;;;;;;;14.31;46.41;99285.73;1718991;83;21032;-40
2022/11/02 09:33:04;;;;;;;23.50;15.63;;;;;;;14.42;45.73;99286.38;1718939;82;20962;-40
2022/11/02 09:35:36;;;;;;;22.60;15.88;;;;;;;14.42;45.64;99285.02;1719150;83;21020;-41
2022/11/02 09:38:04;;;;;;;25.65;16.20;;;;;;;14.48;46.02;99282.86;1718790;83;21053;-40
2022/11/02 09:40:48;;;;;;;26.97;15.28;;;;;;;14.60;45.36;99281.14;1718932;83;21193;-41
2022/11/02 09:43:37;;;;;;;22.70;14.85;;;;;;;14.65;44.42;99288.16;1655497;83;21549;-41
2022/11/02 09:46:28;;;;;;;29.45;16.10;;;;;;;14.55;44.50;99287.56;1718867;83;20965;-40
2022/11/02 09:49:02;;;;;;;24.07;15.75;;;;;;;14.46;45.16;99280.34;1718800;83;20989;-40
2022/11/02 09:51:39;;;;;;;24.98;15.23;;;;;;;14.42;45.43;99275.47;1717141;83;21467;-40
2022/11/02 09:54:20;;;;;;;23.77;14.73;;;;;;;14.29;44.88;99275.78;1718837;83;21135;-41
2022/11/02 09:56:47;;;;;;;22.27;15.15;;;;;;;14.14;45.27;99287.81;1718817;83;21487;-41
2022/11/02 09:59:21;;;;;;;24.47;15.30;;;;;;;14.06;46.06;99290.33;1674651;83;21542;-41
2022/11/02 10:02:12;;;;;;;26.40;16.35;;;;;;;14.09;45.86;99288.18;1718785;82;21052;-41
2022/11/02 10:05:24;;;;;;;24.52;14.68;;;;;;;14.08;45.72;99287.22;1718765;82;21697;-41
2022/11/02 10:08:03;;;;;;;22.45;15.68;;;;;;;14.01;45.25;99287.97;1719007;83;21491;-40
2022/11/02 10:11:19;;;;;;;22.87;15.03;;;;;;;13.96;44.70;99283.46;1718743;82;21049;-40
2022/11/02 10:14:22;;;;;;;27.13;14.85;;;;;;;13.98;45.42;99277.06;1718934;82;21017;-40
2022/11/02 10:19:55;;;;;;;23.02;15.25;;;;;;;14.46;45.08;99274.88;1810330;78;22501;-40
2022/11/02 10:22:27;;;;;;;;;;;;;;;14.61;44.57;99282.71;1790845;80;20966;-40
2022/11/02 10:24:55;;;;;;;28.07;17.02;;;;;;;14.75;44.02;99277.84;1787931;80;21817;-40
2022/11/02 10:27:26;;;;;;;24.60;16.30;;;;;;;14.75;44.20;99277.84;1787771;80;20955;-41
2022/11/02 10:30:17;;;;;;;29.60;16.70;;;;;;;14.80;44.56;99285.65;1793278;79;20988;-41
2022/11/02 10:32:45;;;;;;;25.75;16.93;;;;;;;14.91;44.31;99280.95;1816507;79;20954;-40
2022/11/02 10:35:26;;;;;;;26.55;17.17;;;;;;;15.01;44.33;99282.13;1809633;79;20942;-41
2022/11/02 10:37:58;;;;;;;28.25;17.85;;;;;;;15.20;43.32;99279.77;1816440;78;21279;-41
2022/11/02 10:40:52;;;;;;;31.35;17.37;;;;;;;15.38;42.43;99281.71;1803835;79;20969;-41
2022/11/02 10:44:00;;;;;;;25.90;17.98;;;;;;;15.50;42.06;99289.48;1816291;79;20897;-41
2022/11/02 10:46:45;;;;;;;25.95;16.95;;;;;;;15.56;42.08;99290.67;1810975;79;21357;-41
2022/11/02 10:49:51;;;;;;;26.33;16.85;;;;;;;15.81;42.29;99291.97;1804174;79;20986;-41
2022/11/02 10:52:17;;;;;;;23.52;15.63;;;;;;;16.09;41.80;99289.91;1816560;79;21965;-41
2022/11/02 10:54:50;;;;;;;23.35;15.88;;;;;;;16.43;41.28;99286.60;1816488;79;21463;-41
2022/11/02 10:57:24;;;;;;;24.32;15.83;;;;;;;16.61;39.45;99283.19;1810782;79;20992;-41
2022/11/02 11:00:31;;;;;;;23.42;14.15;;;;;;;16.66;39.43;99273.77;1816407;79;21029;-41
2022/11/02 11:03:13;;;;;;;21.12;13.62;;;;;;;16.81;39.75;99272.48;1816708;79;20898;-41
2022/11/02 11:05:55;;;;;;;21.40;13.43;;;;;;;16.95;38.03;99273.16;1816698;79;21275;-41
2022/11/02 11:08:41;;;;;;;22.22;13.62;;;;;;;16.97;39.08;99277.45;1814986;79;20906;-41
2022/11/02 11:11:24;;;;;;;20.02;13.83;;;;;;;17.14;38.90;99273.77;1816912;79;20909;-41
2022/11/02 11:13:59;;;;;;;22.02;13.60;;;;;;;17.34;38.18;99261.06;1816996;79;20960;-41
2022/11/02 11:16:36;;;;;;;20.25;13.90;;;;;;;17.47;37.83;99258.59;1816868;79;21007;-41
2022/11/02 11:19:21;;;;;;;21.10;14.13;;;;;;;17.50;38.24;99258.55;1800169;78;21133;-41
2022/11/02 11:21:52;;;;;;;23.22;15.03;;;;;;;17.46;37.86;99266.03;1786739;80;21011;-41
2022/11/02 11:24:24;;;;;;;23.92;15.38;;;;;;;17.38;38.47;99258.47;1785991;80;21024;-41
2022/11/02 11:27:18;;;;;;;20.15;13.90;;;;;;;17.44;38.91;99255.28;1786943;80;21214;-41
2022/11/02 11:29:55;;;;;;;17.15;13.25;;;;;;;17.49;37.55;99263.06;1786471;80;21031;-41
2022/11/02 11:32:27;;;;;;;21.77;14.65;;;;;;;17.18;37.63;99258.10;1786559;80;21669;-41
2022/11/02 11:35:02;;;;;;;22.62;12.40;;;;;;;16.76;38.34;99259.22;1786099;80;20897;-41
2022/11/02 11:37:30;;;;;;;18.45;12.37;;;;;;;16.46;39.13;99259.80;1786543;80;20979;-41
2022/11/02 11:40:04;;;;;;;17.65;12.35;;;;;;;16.32;39.68;99265.36;1786235;80;20909;-41
2022/11/02 11:42:34;;;;;;;17.30;12.10;;;;;;;16.26;39.85;99266.98;1785773;79;21009;-41
2022/11/02 11:45:09;;;;;;;20.17;12.60;;;;;;;16.20;39.41;99269.34;1786249;80;21476;-41
2022/11/02 11:47:39;;;;;;;18.73;11.80;;;;;;;16.02;40.11;99272.77;1786304;79;21018;-41
2022/11/02 11:50:13;;;;;;;21.75;12.07;;;;;;;15.71;40.50;99274.44;1786200;80;20975;-41
2022/11/02 11:52:40;;;;;;;22.50;12.18;;;;;;;15.46;40.83;99277.20;1786190;79;21071;-41
2022/11/02 11:55:27;;;;;;;18.48;12.20;;;;;;;15.25;41.50;99271.02;1786466;80;21517;-41
2022/11/02 11:58:16;;;;;;;19.17;12.43;;;;;;;15.07;41.91;99275.89;1786396;80;21203;-41
2022/11/02 12:00:43;;;;;;;21.43;13.20;;;;;;;14.88;42.56;99279.02;1786634;80;21522;-41
2022/11/02 12:03:12;;;;;;;20.48;13.28;;;;;;;14.71;43.32;99275.70;1786559;80;21557;-41
2022/11/02 12:06:06;;;;;;;21.90;13.45;;;;;;;14.66;43.87;99273.36;1786389;80;20960;-41
2022/11/02 12:09:10;;;;;;;20.25;13.43;;;;;;;14.59;43.84;99271.97;1761346;81;21514;-41